createdAt,value
2018-12-16T00:00:15.701Z,-5.50
2018-12-16T00:02:54.133Z,-5.60
2018-12-16T00:05:30.154Z,-5.50
2018-12-16T00:08:01.700Z,-5.60
2018-12-16T00:10:33.513Z,-5.70
2018-12-16T00:13:08.240Z,-5.70
2018-12-16T00:15:46.223Z,-5.70
2018-12-16T00:18:26.656Z,-5.80
2018-12-16T00:21:02.086Z,-5.80
2018-12-16T00:23:33.714Z,-5.80
2018-12-16T00:26:05.898Z,-5.80
2018-12-16T00:28:40.233Z,-5.80
2018-12-16T00:31:14.306Z,-5.70
2018-12-16T00:33:54.769Z,-5.70
2018-12-16T00:36:28.416Z,-5.70
2018-12-16T00:39:06.453Z,-5.60
2018-12-16T00:41:38.081Z,-5.60
2018-12-16T00:44:09.698Z,-5.60
2018-12-16T00:46:41.428Z,-5.70
2018-12-16T00:49:15.997Z,-5.70
2018-12-16T00:51:52.124Z,-5.70
2018-12-16T00:54:29.995Z,-5.70
2018-12-16T00:57:10.317Z,-5.60
2018-12-16T00:59:42.322Z,-5.60
2018-12-16T01:02:19.647Z,-5.60
2018-12-16T01:04:49.775Z,-5.60
2018-12-16T01:07:27.985Z,-5.70
2018-12-16T01:10:14.490Z,-5.70
2018-12-16T01:12:50.718Z,-5.80
2018-12-16T01:15:24.606Z,-5.80
2018-12-16T01:20:34.564Z,-5.80
2018-12-16T01:23:08.496Z,-5.80
2018-12-16T01:28:32.800Z,-6.00
2018-12-16T01:31:04.845Z,-6.10
2018-12-16T01:33:35.002Z,-6.10
2018-12-16T01:36:11.561Z,-6.30
2018-12-16T01:38:41.648Z,-6.30
2018-12-16T01:41:11.347Z,-6.30
2018-12-16T01:43:40.456Z,-6.40
2018-12-16T01:46:12.532Z,-6.40
2018-12-16T01:48:49.176Z,-6.50
2018-12-16T01:51:18.693Z,-6.50
2018-12-16T01:53:50.888Z,-6.60
2018-12-16T01:56:23.077Z,-6.60
2018-12-16T01:58:53.199Z,-6.70
2018-12-16T02:04:18.428Z,-6.60
2018-12-16T02:06:50.392Z,-6.50
2018-12-16T02:09:23.141Z,-6.50
2018-12-16T02:12:05.262Z,-6.40
2018-12-16T02:14:34.475Z,-6.50
2018-12-16T02:17:09.050Z,-6.40
2018-12-16T02:22:21.019Z,-6.30
2018-12-16T02:24:52.629Z,-6.20
2018-12-16T02:27:24.662Z,-6.10
2018-12-16T02:29:54.683Z,-6.10
2018-12-16T02:32:28.522Z,-6.10
2018-12-16T02:35:01.365Z,-6.00
2018-12-16T02:37:33.332Z,-6.00
2018-12-16T02:40:05.561Z,-5.90
2018-12-16T02:42:40.066Z,-5.80
2018-12-16T02:45:19.342Z,-5.70
2018-12-16T02:47:49.585Z,-5.70
2018-12-16T02:50:18.861Z,-5.70
2018-12-16T02:52:48.804Z,-5.60
2018-12-16T02:55:23.269Z,-5.60
2018-12-16T02:57:57.325Z,-5.70
2018-12-16T03:00:35.184Z,-5.60
2018-12-16T03:03:06.745Z,-5.70
2018-12-16T03:05:38.899Z,-5.70
2018-12-16T03:08:11.012Z,-5.70
2018-12-16T03:10:45.257Z,-5.70
2018-12-16T03:16:25.550Z,-5.80
2018-12-16T03:18:59.930Z,-5.80
2018-12-16T03:21:33.604Z,-5.90
2018-12-16T03:24:08.536Z,-5.90
2018-12-16T03:26:44.714Z,-5.90
2018-12-16T03:32:14.973Z,-6.00
2018-12-16T03:34:44.869Z,-6.00
2018-12-16T03:37:20.226Z,-6.10
2018-12-16T03:39:51.787Z,-6.10
2018-12-16T03:42:26.225Z,-6.10
2018-12-16T03:44:58.002Z,-6.10
2018-12-16T03:47:29.249Z,-6.10
2018-12-16T03:50:01.861Z,-6.10
2018-12-16T03:52:33.490Z,-6.00
2018-12-16T03:55:05.638Z,-6.00
2018-12-16T03:57:40.147Z,-6.00
2018-12-16T04:00:20.692Z,-5.90
2018-12-16T04:02:57.052Z,-5.90
2018-12-16T04:05:28.645Z,-5.80
2018-12-16T04:08:00.678Z,-5.80
2018-12-16T04:10:35.277Z,-5.80
2018-12-16T04:15:59.751Z,-5.70
2018-12-16T04:18:33.909Z,-5.70
2018-12-16T04:21:03.435Z,-5.60
2018-12-16T04:23:37.458Z,-5.70
2018-12-16T04:26:15.295Z,-5.50
2018-12-16T04:28:45.072Z,-5.50
2018-12-16T04:31:21.892Z,-5.50
2018-12-16T04:33:59.688Z,-5.40
2018-12-16T04:36:39.846Z,-5.40
2018-12-16T04:39:14.469Z,-5.40
2018-12-16T04:41:58.836Z,-5.40
2018-12-16T04:44:30.952Z,-5.40
2018-12-16T04:47:02.743Z,-5.40
2018-12-16T04:49:43.743Z,-5.40
2018-12-16T04:52:18.369Z,-5.30
2018-12-16T04:54:49.852Z,-5.30
2018-12-16T04:57:24.482Z,-5.30
2018-12-16T04:59:56.009Z,-5.30
2018-12-16T05:02:33.673Z,-5.40
2018-12-16T05:05:05.883Z,-5.30
2018-12-16T05:07:37.635Z,-5.30
2018-12-16T05:10:17.740Z,-5.30
2018-12-16T05:12:49.683Z,-5.30
2018-12-16T05:15:19.427Z,-5.30
2018-12-16T05:17:54.015Z,-5.30
2018-12-16T05:20:27.964Z,-5.30
2018-12-16T05:22:59.470Z,-5.30
2018-12-16T05:25:31.508Z,-5.30
2018-12-16T05:28:03.005Z,-5.30
2018-12-16T05:30:39.355Z,-5.30
2018-12-16T05:33:11.144Z,-5.20
2018-12-16T05:35:45.702Z,-5.20
2018-12-16T05:38:15.391Z,-5.20
2018-12-16T05:40:50.550Z,-5.20
2018-12-16T05:43:26.925Z,-5.10
2018-12-16T05:45:58.363Z,-5.10
2018-12-16T05:48:34.590Z,-5.10
2018-12-16T05:51:08.635Z,-5.00
2018-12-16T05:53:48.405Z,-5.00
2018-12-16T05:56:25.316Z,-5.00
2018-12-16T05:58:57.966Z,-5.80
2018-12-16T06:01:29.876Z,-4.90
2018-12-16T06:04:01.831Z,-4.90
2018-12-16T06:06:34.379Z,-5.00
2018-12-16T06:09:06.582Z,-4.80
2018-12-16T06:14:37.732Z,-4.80
2018-12-16T06:17:09.448Z,-4.80
2018-12-16T06:19:41.185Z,-4.90
2018-12-16T06:22:14.940Z,-4.90
2018-12-16T06:24:46.443Z,-4.90
2018-12-16T06:27:18.890Z,-4.90
2018-12-16T06:32:23.106Z,-4.80
2018-12-16T06:35:00.948Z,-4.80
2018-12-16T06:37:32.692Z,-4.80
2018-12-16T06:40:17.299Z,-4.70
2018-12-16T06:42:51.725Z,-4.70
2018-12-16T06:45:27.603Z,-4.70
2018-12-16T06:48:14.230Z,-4.60
2018-12-16T06:50:52.484Z,-4.50
2018-12-16T06:53:24.589Z,-4.40
2018-12-16T06:56:06.605Z,-4.30
2018-12-16T06:58:41.084Z,-4.30
2018-12-16T07:01:12.502Z,-4.20
2018-12-16T07:03:44.501Z,-4.20
2018-12-16T07:06:17.105Z,-4.20
2018-12-16T07:08:51.086Z,-4.10
2018-12-16T07:11:22.687Z,-4.10
2018-12-16T07:13:54.955Z,-4.00
2018-12-16T07:16:29.778Z,-4.00
2018-12-16T07:19:03.818Z,-3.90
2018-12-16T07:21:39.263Z,-3.90
2018-12-16T07:24:11.271Z,-3.90
2018-12-16T07:26:42.546Z,-3.80
2018-12-16T07:29:20.365Z,-3.80
2018-12-16T07:31:54.646Z,-3.70
2018-12-16T07:36:55.204Z,-3.60
2018-12-16T07:39:28.896Z,-3.60
2018-12-16T07:42:06.048Z,-3.60
2018-12-16T07:44:40.301Z,-3.60
2018-12-16T07:47:21.829Z,-3.50
2018-12-16T07:49:51.807Z,-3.50
2018-12-16T07:52:26.302Z,-3.40
2018-12-16T07:55:00.369Z,-3.40
2018-12-16T07:57:32.867Z,-3.40
2018-12-16T08:00:13.244Z,-3.30
2018-12-16T08:02:46.993Z,-3.30
2018-12-16T08:05:18.842Z,-3.30
2018-12-16T08:07:53.488Z,-3.20
2018-12-16T08:10:25.041Z,-3.20
2018-12-16T08:12:57.163Z,-3.10
2018-12-16T08:15:31.606Z,-3.00
2018-12-16T08:18:03.334Z,-3.00
2018-12-16T08:20:37.901Z,-2.90
2018-12-16T08:23:18.285Z,-2.80
2018-12-16T08:25:51.058Z,-2.80
2018-12-16T08:28:31.429Z,-2.80
2018-12-16T08:31:03.640Z,-2.70
2018-12-16T08:33:50.678Z,-2.70
2018-12-16T08:36:22.544Z,-2.70
2018-12-16T08:38:53.793Z,-2.70
2018-12-16T08:41:25.720Z,-2.70
2018-12-16T08:43:55.059Z,-2.70
2018-12-16T08:46:31.680Z,-2.70
2018-12-16T08:49:05.887Z,-2.80
2018-12-16T08:51:37.654Z,-2.80
2018-12-16T08:54:22.755Z,-2.60
2018-12-16T08:56:54.958Z,-2.50
2018-12-16T09:02:35.887Z,-2.60
2018-12-16T09:05:09.726Z,-2.50
2018-12-16T09:07:43.598Z,-2.40
2018-12-16T09:10:13.508Z,-2.20
2018-12-16T09:12:45.277Z,-2.30
2018-12-16T09:15:15.376Z,-2.30
2018-12-16T09:17:45.549Z,-2.60
2018-12-16T09:20:19.371Z,-2.60
2018-12-16T09:22:48.617Z,-2.50
2018-12-16T09:25:22.284Z,-2.50
2018-12-16T09:28:00.226Z,-2.60
2018-12-16T09:30:36.460Z,-2.50
2018-12-16T09:33:08.310Z,-2.60
2018-12-16T09:35:40.331Z,-2.60
2018-12-16T09:40:46.714Z,-2.40
2018-12-16T09:43:18.136Z,-2.30
2018-12-16T09:45:52.150Z,-2.20
2018-12-16T09:54:29.805Z,-2.10
2018-12-16T09:57:04.240Z,-2.00
2018-12-16T09:59:39.430Z,-2.10
2018-12-16T10:02:11.147Z,-2.10
2018-12-16T10:04:43.260Z,-2.00
2018-12-16T10:10:16.971Z,-1.90
2018-12-16T10:13:01.587Z,-1.70
2018-12-16T10:15:33.630Z,-1.60
2018-12-16T10:18:04.013Z,-1.80
2018-12-16T10:20:42.390Z,-1.80
2018-12-16T10:23:28.211Z,-1.60
2018-12-16T10:26:00.316Z,-1.60
2018-12-16T10:28:42.291Z,-1.90
2018-12-16T10:31:11.510Z,-2.10
2018-12-16T10:33:47.571Z,-2.30
2018-12-16T10:36:25.292Z,-2.30
2018-12-16T10:41:28.353Z,-2.30
2018-12-16T10:44:00.497Z,-2.40
2018-12-16T10:46:29.946Z,-2.30
2018-12-16T10:49:14.112Z,-2.40
2018-12-16T10:51:49.847Z,-2.30
2018-12-16T10:54:19.194Z,-2.30
2018-12-16T10:56:50.561Z,-2.30
2018-12-16T10:59:27.107Z,-2.20
2018-12-16T11:01:57.100Z,-2.20
2018-12-16T11:04:31.972Z,-2.20
2018-12-16T11:07:12.244Z,-2.20
2018-12-16T11:09:46.927Z,-2.10
2018-12-16T11:12:17.448Z,-2.00
2018-12-16T11:14:52.088Z,-2.00
2018-12-16T11:20:23.934Z,-2.20
2018-12-16T11:22:54.169Z,-2.10
2018-12-16T11:25:26.213Z,-2.10
2018-12-16T11:27:58.399Z,-1.90
2018-12-16T11:30:30.116Z,-1.80
2018-12-16T11:33:00.033Z,-1.90
2018-12-16T11:35:30.106Z,-1.80
2018-12-16T11:38:01.747Z,-2.00
2018-12-16T11:45:36.853Z,-2.30
2018-12-16T11:48:09.025Z,-2.40
2018-12-16T11:50:41.053Z,-2.20
2018-12-16T11:53:13.119Z,-2.10
2018-12-16T11:55:45.117Z,-2.00
2018-12-16T11:58:26.112Z,-2.20
2018-12-16T12:01:01.462Z,-2.20
2018-12-16T12:03:33.268Z,-2.20
2018-12-16T12:06:03.315Z,-2.20
2018-12-16T12:08:36.958Z,-2.00
2018-12-16T12:11:13.333Z,-2.10
2018-12-16T12:13:45.053Z,-2.10
2018-12-16T12:16:17.376Z,-2.00
2018-12-16T12:19:01.133Z,-2.00
2018-12-16T12:21:30.989Z,-1.80
2018-12-16T12:24:01.280Z,-1.70
2018-12-16T12:26:33.504Z,-0.90
2018-12-16T12:29:08.225Z,-1.70
2018-12-16T12:31:42.774Z,-2.00
2018-12-16T12:34:14.160Z,-1.90
2018-12-16T12:39:34.810Z,-1.70
2018-12-16T12:42:07.160Z,-1.60
2018-12-16T12:44:39.327Z,-1.60
2018-12-16T12:47:11.471Z,-1.50
2018-12-16T12:49:45.660Z,-1.40
2018-12-16T12:52:20.020Z,-1.60
2018-12-16T12:54:51.979Z,-1.60
2018-12-16T12:57:23.682Z,-1.70
2018-12-16T12:59:57.448Z,-1.70
2018-12-16T13:02:29.316Z,-1.80
2018-12-16T13:05:05.819Z,-1.70
2018-12-16T13:07:37.900Z,-1.80
2018-12-16T13:10:09.905Z,-1.90
2018-12-16T13:12:41.848Z,-2.00
2018-12-16T13:15:11.166Z,-2.10
2018-12-16T13:17:45.784Z,-2.00
2018-12-16T13:20:26.314Z,-1.80
2018-12-16T13:23:02.700Z,-1.80
2018-12-16T13:25:45.943Z,-1.90
2018-12-16T13:28:17.760Z,-1.80
2018-12-16T13:30:52.060Z,-1.80
2018-12-16T13:33:26.102Z,-1.90
2018-12-16T13:35:57.445Z,-1.80
2018-12-16T13:38:38.465Z,-1.80
2018-12-16T13:41:14.968Z,-1.80
2018-12-16T13:43:49.068Z,-1.80
2018-12-16T13:46:27.186Z,-1.80
2018-12-16T13:49:01.515Z,-1.70
2018-12-16T13:51:33.871Z,-1.70
2018-12-16T13:54:14.571Z,-1.70
2018-12-16T13:56:46.503Z,-1.70
2018-12-16T14:02:14.534Z,-1.60
2018-12-16T14:04:50.510Z,-1.50
2018-12-16T14:07:22.075Z,-1.60
2018-12-16T14:09:53.609Z,-1.80
2018-12-16T14:12:25.598Z,-1.80
2018-12-16T14:15:00.125Z,-1.90
2018-12-16T14:17:32.355Z,-1.80
2018-12-16T14:26:02.281Z,-1.70
2018-12-16T14:28:42.891Z,-1.70
2018-12-16T14:31:14.127Z,-1.70
2018-12-16T14:33:45.460Z,-1.70
2018-12-16T14:36:20.466Z,-1.70
2018-12-16T14:38:52.654Z,-1.80
2018-12-16T14:41:33.552Z,-1.80
2018-12-16T14:44:07.202Z,-1.80
2018-12-16T14:46:39.507Z,-1.90
2018-12-16T14:49:11.025Z,-1.90
2018-12-16T14:51:43.139Z,-1.90
2018-12-16T14:54:18.940Z,-1.90
2018-12-16T14:56:50.771Z,-1.90
2018-12-16T14:59:25.292Z,-1.90
2018-12-16T15:01:57.401Z,-1.90
2018-12-16T15:04:27.181Z,-1.90
2018-12-16T15:07:07.276Z,-1.90
2018-12-16T15:09:38.543Z,-1.90
2018-12-16T15:12:10.221Z,-1.90
2018-12-16T15:15:01.313Z,-1.90
2018-12-16T15:17:42.686Z,-1.90
2018-12-16T15:20:17.998Z,-1.80
2018-12-16T15:22:49.872Z,-1.90
2018-12-16T15:25:19.241Z,-1.90
2018-12-16T15:27:51.046Z,-1.90
2018-12-16T15:30:27.429Z,-1.90
2018-12-16T15:33:05.425Z,-1.80
2018-12-16T15:35:43.506Z,-1.80
2018-12-16T15:38:21.791Z,-1.80
2018-12-16T15:40:59.964Z,-2.70
2018-12-16T15:43:30.807Z,-1.80
2018-12-16T15:46:03.108Z,-1.80
2018-12-16T15:51:32.978Z,-1.80
2018-12-16T15:54:05.395Z,-1.80
2018-12-16T15:56:43.979Z,-1.80
2018-12-16T15:59:21.997Z,-1.80
2018-12-16T16:01:58.270Z,-1.80
2018-12-16T16:04:45.075Z,-1.70
2018-12-16T16:07:19.746Z,-1.70
2018-12-16T16:09:51.483Z,-1.60
2018-12-16T16:12:23.580Z,-1.60
2018-12-16T16:15:05.632Z,-1.60
2018-12-16T16:17:40.269Z,-1.60
2018-12-16T16:20:10.255Z,-1.60
2018-12-16T16:22:40.304Z,-1.60
2018-12-16T16:25:18.915Z,-1.50
2018-12-16T16:27:52.937Z,-1.50
2018-12-16T16:30:25.544Z,-1.60
2018-12-16T16:32:57.719Z,-1.50
2018-12-16T16:35:32.439Z,-1.50
2018-12-16T16:38:04.277Z,-1.50
2018-12-16T16:40:38.908Z,-1.50
2018-12-16T16:43:13.853Z,-1.40
2018-12-16T16:45:51.645Z,-1.40
2018-12-16T16:48:26.283Z,-1.40
2018-12-16T16:51:00.841Z,-1.40
2018-12-16T16:53:34.956Z,-1.40
2018-12-16T16:56:09.073Z,-1.40
2018-12-16T16:58:38.821Z,-1.40
2018-12-16T17:01:10.892Z,-1.50
2018-12-16T17:03:44.895Z,-1.40
2018-12-16T17:06:16.895Z,-1.40
2018-12-16T17:08:47.151Z,-1.40
2018-12-16T17:11:22.321Z,-1.30
2018-12-16T17:13:58.521Z,-1.30
2018-12-16T17:16:30.581Z,-1.30
2018-12-16T17:19:01.516Z,-1.20
2018-12-16T17:21:36.943Z,-1.20
2018-12-16T17:24:11.577Z,-1.20
2018-12-16T17:26:46.639Z,-1.20
2018-12-16T17:29:18.244Z,-1.10
2018-12-16T17:31:48.639Z,-1.30
2018-12-16T17:34:20.883Z,-1.30
2018-12-16T17:36:50.177Z,-1.40
2018-12-16T17:39:22.437Z,-1.40
2018-12-16T17:41:54.421Z,-1.40
2018-12-16T17:44:30.513Z,-1.40
2018-12-16T17:47:04.302Z,-1.40
2018-12-16T17:49:44.890Z,-1.50
2018-12-16T17:52:27.208Z,-1.50
2018-12-16T17:55:01.060Z,-1.60
2018-12-16T17:57:32.852Z,-1.60
2018-12-16T18:00:22.149Z,-1.90
2018-12-16T18:03:09.256Z,-1.90
2018-12-16T18:05:47.697Z,-2.00
2018-12-16T18:08:19.512Z,-2.00
2018-12-16T18:10:54.502Z,-2.00
2018-12-16T18:13:30.542Z,-2.00
2018-12-16T18:16:02.248Z,-2.00
2018-12-16T18:18:36.878Z,-2.00
2018-12-16T18:21:07.337Z,-2.00
2018-12-16T18:23:45.393Z,-2.00
2018-12-16T18:26:19.639Z,-2.00
2018-12-16T18:28:51.116Z,-2.00
2018-12-16T18:31:21.051Z,-2.00
2018-12-16T18:34:11.685Z,-2.10
2018-12-16T18:36:43.518Z,-2.00
2018-12-16T18:39:20.179Z,-2.00
2018-12-16T18:41:52.177Z,-2.00
2018-12-16T18:44:24.048Z,-2.00
2018-12-16T18:46:58.219Z,-1.90
2018-12-16T18:52:32.441Z,-2.00
2018-12-16T18:55:19.655Z,-1.90
2018-12-16T18:58:00.348Z,-1.90
2018-12-16T19:00:31.614Z,-1.90
2018-12-16T19:05:59.020Z,-1.80
2018-12-16T19:08:30.740Z,-1.80
2018-12-16T19:11:05.292Z,-1.80
2018-12-16T19:13:37.207Z,-1.80
2018-12-16T19:19:05.197Z,-1.70
2018-12-16T19:21:39.589Z,-1.70
2018-12-16T19:24:11.318Z,-1.70
2018-12-16T19:26:43.315Z,-1.70
2018-12-16T19:29:15.678Z,-1.70
2018-12-16T19:31:50.343Z,-1.60
2018-12-16T19:34:36.899Z,-1.60
2018-12-16T19:37:17.978Z,-1.60
2018-12-16T19:39:50.053Z,-1.50
2018-12-16T19:42:22.078Z,-1.50
2018-12-16T19:44:58.668Z,-1.50
2018-12-16T19:47:36.769Z,-1.50
2018-12-16T19:50:11.084Z,-1.50
2018-12-16T19:52:42.577Z,-1.50
2018-12-16T19:55:12.094Z,-1.50
2018-12-16T19:57:46.357Z,-1.40
2018-12-16T20:00:16.338Z,-1.40
2018-12-16T20:05:29.481Z,-1.40
2018-12-16T20:08:01.629Z,-1.40
2018-12-16T20:10:39.502Z,-1.30
2018-12-16T20:13:09.267Z,-1.30
2018-12-16T20:15:47.871Z,-1.30
2018-12-16T20:18:22.108Z,-1.30
2018-12-16T20:21:00.114Z,-1.20
2018-12-16T20:23:33.902Z,-1.20
2018-12-16T20:26:08.056Z,-1.20
2018-12-16T20:28:40.254Z,-1.20
2018-12-16T20:31:12.634Z,-1.20
2018-12-16T20:33:47.360Z,-1.20
2018-12-16T20:36:18.096Z,-1.20
2018-12-16T20:38:49.591Z,-1.30
2018-12-16T20:41:21.676Z,-1.40
2018-12-16T20:44:08.704Z,-1.40
2018-12-16T20:46:51.437Z,-1.40
2018-12-16T20:49:23.424Z,-1.40
2018-12-16T20:51:55.588Z,-1.40
2018-12-16T20:54:34.182Z,-1.40
2018-12-16T20:57:08.133Z,-1.40
2018-12-16T20:59:39.716Z,-1.40
2018-12-16T21:02:13.305Z,-1.40
2018-12-16T21:04:54.171Z,-1.50
2018-12-16T21:07:38.764Z,-1.40
2018-12-16T21:10:10.717Z,-1.40
2018-12-16T21:12:54.361Z,-1.50
2018-12-16T21:15:33.611Z,-1.30
2018-12-16T21:18:16.702Z,-1.30
2018-12-16T21:20:48.750Z,-1.20
2018-12-16T21:23:23.498Z,-1.20
2018-12-16T21:25:54.859Z,-1.20
2018-12-16T21:28:30.789Z,-1.30
2018-12-16T21:31:02.366Z,-1.20
2018-12-16T21:33:38.196Z,-1.10
2018-12-16T21:36:16.301Z,-1.10
2018-12-16T21:38:48.016Z,-1.10
2018-12-16T21:41:19.610Z,-1.10
2018-12-16T21:43:55.337Z,-1.10
2018-12-16T21:46:27.128Z,-1.10
2018-12-16T21:49:02.874Z,-1.10
2018-12-16T21:51:34.787Z,-1.10
2018-12-16T21:54:09.172Z,-1.10
2018-12-16T21:56:40.803Z,-1.10
2018-12-16T21:59:15.313Z,-1.10
2018-12-16T22:04:45.057Z,-1.10
2018-12-16T22:07:16.416Z,-1.10
2018-12-16T22:09:54.424Z,-1.10
2018-12-16T22:12:34.630Z,-1.10
2018-12-16T22:15:22.130Z,-1.00
2018-12-16T22:17:56.341Z,-1.00
2018-12-16T22:20:31.551Z,-1.10
2018-12-16T22:23:05.658Z,-1.00
2018-12-16T22:25:46.805Z,-1.00
2018-12-16T22:28:23.773Z,-1.00
2018-12-16T22:30:55.271Z,-1.00
2018-12-16T22:33:27.419Z,-1.00
2018-12-16T22:35:59.792Z,-1.00
2018-12-16T22:38:33.465Z,-1.00
2018-12-16T22:41:05.510Z,-0.90
2018-12-16T22:43:37.836Z,-0.90
2018-12-16T22:46:14.577Z,-0.90
2018-12-16T22:48:46.389Z,-0.90
2018-12-16T22:51:16.572Z,-0.90
2018-12-16T22:56:41.725Z,-0.90
2018-12-16T22:59:17.408Z,-0.80
2018-12-16T23:01:48.697Z,-0.90
2018-12-16T23:04:19.966Z,-0.80
2018-12-16T23:07:00.314Z,-0.80
2018-12-16T23:09:34.207Z,-0.80
2018-12-16T23:12:08.301Z,-0.90
2018-12-16T23:14:40.408Z,-0.80
2018-12-16T23:17:19.143Z,-0.80
2018-12-16T23:20:02.487Z,-0.80
2018-12-16T23:22:36.194Z,-0.80
2018-12-16T23:25:08.439Z,-0.80
2018-12-16T23:27:44.605Z,-0.80
2018-12-16T23:30:16.032Z,-0.80
2018-12-16T23:32:46.304Z,-0.80
2018-12-16T23:35:22.899Z,-0.80
2018-12-16T23:37:54.720Z,-0.80
2018-12-16T23:40:28.885Z,-0.80
2018-12-16T23:43:15.882Z,-0.80
2018-12-16T23:45:46.043Z,-0.80
2018-12-16T23:48:15.893Z,-0.80
2018-12-16T23:50:48.049Z,-0.80
2018-12-16T23:53:29.081Z,-0.80
2018-12-16T23:56:12.064Z,-0.80
